Time;durP1;ratioP1;P1;durP2;ratioP2;P2;SDS_P1;SDS_P2;PMS_P1;PMS_P2;Temp;Humidity;BMP_temperature;BMP_pressure;BME280_temperature;BME280_humidity;BME280_pressure;Samples;Min_cycle;Max_cycle;Signal;HPM_P1;HPM_P2
2021/03/31 00:02:17;;;;;;;4.23;3.53;;;;;;;;;;5059967;28;20650;-61
2021/03/31 00:04:43;;;;;;;4.37;3.30;;;;;;;;;;5054234;28;20315;-61
2021/03/31 00:07:10;;;;;;;3.53;3.10;;;;;;;;;;5050196;28;20200;-60
2021/03/31 00:09:36;;;;;;;6.97;3.87;;;;;;;;;;5067945;28;20180;-60
2021/03/31 00:12:03;;;;;;;5.73;3.30;;;;;;;;;;5050638;28;20248;-61
2021/03/31 00:14:29;;;;;;;3.77;3.10;;;;;;;;;;5061001;28;20192;-60
2021/03/31 00:16:55;;;;;;;4.73;3.20;;;;;;;;;;5048858;28;20238;-61
2021/03/31 00:19:21;;;;;;;4.13;3.30;;;;;;;;;;5042514;28;20188;-61
2021/03/31 00:21:47;;;;;;;6.10;3.73;;;;;;;;;;5054327;28;20246;-61
2021/03/31 00:24:13;;;;;;;4.60;3.60;;;;;;;;;;5060608;28;20181;-60
2021/03/31 00:26:39;;;;;;;4.40;3.03;;;;;;;;;;5055950;28;20541;-60
2021/03/31 00:29:05;;;;;;;4.07;3.27;;;;;;;;;;5063879;28;20658;-61
2021/03/31 00:31:31;;;;;;;3.83;3.27;;;;;;;;;;5063670;28;20208;-60
2021/03/31 00:33:57;;;;;;;4.17;3.50;;;;;;;;;;5064855;28;20188;-61
2021/03/31 00:36:23;;;;;;;3.93;3.33;;;;;;;;;;5057424;28;20506;-61
2021/03/31 00:38:49;;;;;;;4.90;3.50;;;;;;;;;;5042098;28;20184;-60
2021/03/31 00:41:15;;;;;;;4.07;3.37;;;;;;;;;;5039619;28;564085;-61
2021/03/31 00:43:41;;;;;;;3.90;3.50;;;;;;;;;;5057302;28;20208;-60
2021/03/31 00:46:07;;;;;;;6.20;4.13;;;;;;;;;;5050326;28;20177;-60
2021/03/31 00:48:33;;;;;;;3.80;3.50;;;;;;;;;;5037235;28;20176;-60
2021/03/31 00:51:00;;;;;;;4.87;3.37;;;;;;;;;;5070695;28;20200;-60
2021/03/31 00:53:31;;;;;;;4.83;3.70;;;;;;;;;;5061182;28;20609;-60
2021/03/31 00:55:58;;;;;;;6.90;4.07;;;;;;;;;;5039106;28;20742;-60
2021/03/31 00:58:24;;;;;;;4.47;3.20;;;;;;;;;;5040071;28;20176;-60
2021/03/31 01:00:50;;;;;;;4.67;3.57;;;;;;;;;;5068347;28;20232;-60
2021/03/31 01:03:16;;;;;;;5.03;3.60;;;;;;;;;;5046762;28;20172;-61
2021/03/31 01:05:42;;;;;;;4.10;3.40;;;;;;;;;;5062683;28;20185;-60
2021/03/31 01:08:08;;;;;;;5.17;4.00;;;;;;;;;;5038695;28;20225;-59
2021/03/31 01:10:39;;;;;;;4.07;3.53;;;;;;;;;;5056181;28;20192;-60
2021/03/31 01:13:11;;;;;;;4.53;3.47;;;;;;;;;;5057239;28;20726;-62
2021/03/31 01:15:42;;;;;;;6.10;3.73;;;;;;;;;;5050111;28;20250;-60
2021/03/31 01:18:27;;;;;;;3.50;3.20;;;;;;;;;;5051774;28;20243;-61
2021/03/31 01:21:12;;;;;;;3.53;3.23;;;;;;;;;;5068651;28;20180;-60
2021/03/31 01:23:50;;;;;;;4.90;3.33;;;;;;;;;;5066270;28;20176;-60
2021/03/31 01:26:24;;;;;;;4.40;3.23;;;;;;;;;;5053616;28;20519;-60
2021/03/31 01:29:05;;;;;;;4.53;3.70;;;;;;;;;;5068596;28;20705;-63
2021/03/31 01:31:31;;;;;;;5.07;3.50;;;;;;;;;;5065076;28;20200;-60
2021/03/31 01:34:16;;;;;;;4.57;3.43;;;;;;;;;;5048385;28;20179;-60
2021/03/31 01:36:43;;;;;;;4.17;3.77;;;;;;;;;;5051111;28;20177;-60
2021/03/31 01:39:10;;;;;;;3.47;3.17;;;;;;;;;;5046399;28;20181;-60
2021/03/31 01:41:37;;;;;;;4.53;3.60;;;;;;;;;;5053900;28;20500;-61
2021/03/31 01:44:06;;;;;;;4.23;3.27;;;;;;;;;;5065137;28;20539;-61
2021/03/31 01:46:33;;;;;;;3.93;3.57;;;;;;;;;;5069152;28;20212;-60
2021/03/31 01:49:01;;;;;;;4.60;3.03;;;;;;;;;;5068325;28;20188;-60
2021/03/31 01:51:28;;;;;;;6.90;3.37;;;;;;;;;;5071690;28;20242;-61
2021/03/31 01:53:55;;;;;;;3.20;2.90;;;;;;;;;;5044971;28;20184;-60
2021/03/31 01:56:21;;;;;;;4.47;3.60;;;;;;;;;;5055647;28;20177;-61
2021/03/31 01:58:48;;;;;;;3.40;3.10;;;;;;;;;;5045142;28;20624;-60
2021/03/31 02:01:17;;;;;;;3.50;3.20;;;;;;;;;;5061386;28;20178;-60
2021/03/31 02:03:44;;;;;;;4.50;3.77;;;;;;;;;;5063172;28;20215;-60
2021/03/31 02:06:11;;;;;;;4.60;3.80;;;;;;;;;;5070903;28;20680;-60
2021/03/31 02:08:37;;;;;;;3.53;3.20;;;;;;;;;;5058326;28;20192;-60
2021/03/31 02:11:04;;;;;;;7.27;3.83;;;;;;;;;;5058622;28;20201;-60
2021/03/31 02:13:30;;;;;;;4.47;3.10;;;;;;;;;;5060517;28;20263;-60
2021/03/31 02:15:57;;;;;;;4.80;3.47;;;;;;;;;;5071525;28;20521;-63
2021/03/31 02:18:25;;;;;;;5.33;3.57;;;;;;;;;;5057419;28;20315;-60
2021/03/31 02:20:55;;;;;;;3.43;2.97;;;;;;;;;;5039754;28;20645;-62
2021/03/31 02:23:23;;;;;;;4.80;3.43;;;;;;;;;;5042504;28;20192;-61
2021/03/31 02:25:49;;;;;;;3.80;3.40;;;;;;;;;;5061451;28;20252;-60
2021/03/31 02:28:15;;;;;;;3.90;2.93;;;;;;;;;;5070308;28;20177;-60
2021/03/31 02:30:42;;;;;;;3.70;2.80;;;;;;;;;;5072319;28;20179;-63
2021/03/31 02:33:09;;;;;;;6.13;3.40;;;;;;;;;;5070369;28;20697;-61
2021/03/31 02:35:35;;;;;;;3.97;3.40;;;;;;;;;;5059417;28;20192;-60
2021/03/31 02:38:04;;;;;;;4.10;3.07;;;;;;;;;;5059794;28;20242;-61
2021/03/31 02:40:31;;;;;;;3.80;3.17;;;;;;;;;;5061127;28;20568;-60
2021/03/31 02:42:58;;;;;;;3.67;3.00;;;;;;;;;;5056795;28;20185;-60
2021/03/31 02:45:25;;;;;;;4.00;3.03;;;;;;;;;;5071736;28;20539;-60
2021/03/31 02:47:52;;;;;;;3.20;2.80;;;;;;;;;;5070048;28;20187;-62
2021/03/31 02:50:19;;;;;;;4.37;3.20;;;;;;;;;;5069467;28;20196;-60
2021/03/31 02:52:46;;;;;;;4.40;3.27;;;;;;;;;;5060119;28;20196;-60
2021/03/31 02:55:13;;;;;;;5.33;3.53;;;;;;;;;;5069450;28;20216;-60
2021/03/31 02:57:39;;;;;;;4.70;3.20;;;;;;;;;;5069928;28;20169;-60
2021/03/31 03:00:10;;;;;;;4.00;3.17;;;;;;;;;;5053495;28;20180;-61
2021/03/31 03:02:37;;;;;;;3.80;2.73;;;;;;;;;;5069642;28;20181;-60
2021/03/31 03:05:04;;;;;;;4.67;2.83;;;;;;;;;;5070473;28;20189;-61
2021/03/31 03:07:30;;;;;;;3.00;2.73;;;;;;;;;;5052847;28;20177;-61
2021/03/31 03:09:56;;;;;;;4.43;3.20;;;;;;;;;;5044445;28;20202;-60
2021/03/31 03:12:23;;;;;;;3.40;3.10;;;;;;;;;;5051209;28;20209;-60
2021/03/31 03:14:51;;;;;;;4.40;3.23;;;;;;;;;;5052837;28;20179;-61
2021/03/31 03:17:18;;;;;;;5.17;3.20;;;;;;;;;;5070686;28;20180;-61
2021/03/31 03:19:44;;;;;;;3.37;3.07;;;;;;;;;;5065414;28;20173;-61
2021/03/31 03:22:10;;;;;;;4.83;3.40;;;;;;;;;;5033659;28;20226;-61
2021/03/31 03:24:37;;;;;;;4.33;2.87;;;;;;;;;;5052353;28;20188;-60
2021/03/31 03:27:04;;;;;;;3.37;2.80;;;;;;;;;;5068239;28;20586;-60
2021/03/31 03:29:30;;;;;;;6.77;3.70;;;;;;;;;;5069269;28;20628;-59
2021/03/31 03:31:56;;;;;;;4.13;3.20;;;;;;;;;;5070611;28;20204;-60
2021/03/31 03:34:23;;;;;;;4.23;3.00;;;;;;;;;;5069318;28;20184;-60
2021/03/31 03:36:50;;;;;;;3.37;3.07;;;;;;;;;;5068963;28;20254;-60
2021/03/31 03:39:16;;;;;;;6.33;3.50;;;;;;;;;;5066974;28;20204;-63
2021/03/31 03:41:43;;;;;;;3.53;3.20;;;;;;;;;;5051009;28;20188;-60
2021/03/31 03:44:09;;;;;;;3.00;2.70;;;;;;;;;;5060112;28;20176;-60
2021/03/31 03:46:36;;;;;;;3.43;3.07;;;;;;;;;;5071055;28;20200;-60
2021/03/31 03:49:03;;;;;;;3.90;2.80;;;;;;;;;;5070762;28;20317;-63
2021/03/31 03:51:30;;;;;;;3.03;2.73;;;;;;;;;;5054133;28;20232;-60
2021/03/31 03:53:56;;;;;;;3.90;3.03;;;;;;;;;;5039691;28;20208;-61
2021/03/31 03:56:22;;;;;;;3.00;2.70;;;;;;;;;;5056189;28;20181;-61
2021/03/31 03:58:48;;;;;;;3.33;3.03;;;;;;;;;;5070752;28;20181;-60
2021/03/31 04:01:15;;;;;;;3.20;2.90;;;;;;;;;;5051839;28;20235;-60
2021/03/31 04:03:41;;;;;;;4.07;3.00;;;;;;;;;;5054855;28;20679;-61
2021/03/31 04:06:08;;;;;;;4.13;2.93;;;;;;;;;;5071128;28;20181;-60
2021/03/31 04:08:34;;;;;;;4.53;2.90;;;;;;;;;;5062202;28;20664;-61
2021/03/31 04:11:00;;;;;;;4.87;2.90;;;;;;;;;;5057037;28;20223;-63
2021/03/31 04:13:28;;;;;;;3.77;3.10;;;;;;;;;;5052703;28;20628;-61
2021/03/31 04:15:58;;;;;;;2.97;2.70;;;;;;;;;;5052956;28;20172;-61
2021/03/31 04:18:25;;;;;;;3.67;2.80;;;;;;;;;;5063661;28;20173;-60
2021/03/31 04:20:52;;;;;;;3.83;3.20;;;;;;;;;;5062616;28;20204;-60
2021/03/31 04:23:18;;;;;;;3.63;3.13;;;;;;;;;;5038781;28;20349;-63
2021/03/31 04:25:44;;;;;;;3.70;3.07;;;;;;;;;;5069602;28;20511;-60
2021/03/31 04:28:11;;;;;;;4.37;3.13;;;;;;;;;;5048448;28;20181;-60
2021/03/31 04:30:39;;;;;;;5.00;2.87;;;;;;;;;;5063410;28;20714;-60
2021/03/31 04:33:05;;;;;;;4.73;3.47;;;;;;;;;;5062905;28;20201;-61
2021/03/31 04:35:32;;;;;;;3.57;3.27;;;;;;;;;;5063851;28;20184;-60
2021/03/31 04:38:08;;;;;;;4.03;3.30;;;;;;;;;;5038791;28;20193;-61
2021/03/31 04:40:39;;;;;;;3.47;3.00;;;;;;;;;;5059676;28;20578;-60
2021/03/31 04:43:05;;;;;;;3.40;2.80;;;;;;;;;;5032069;28;20177;-62
2021/03/31 04:45:31;;;;;;;3.37;2.87;;;;;;;;;;5070239;28;20184;-60
2021/03/31 04:47:57;;;;;;;3.87;3.33;;;;;;;;;;5062860;28;20188;-61
2021/03/31 04:50:23;;;;;;;3.73;3.17;;;;;;;;;;5041530;28;20832;-61
2021/03/31 04:52:49;;;;;;;5.93;3.20;;;;;;;;;;5060407;28;20232;-60
2021/03/31 04:55:15;;;;;;;7.47;3.23;;;;;;;;;;5065258;28;20231;-60
2021/03/31 04:57:41;;;;;;;5.57;2.77;;;;;;;;;;5069934;28;20177;-59
2021/03/31 05:00:08;;;;;;;4.03;3.00;;;;;;;;;;5052192;28;20212;-61
2021/03/31 05:02:34;;;;;;;3.63;2.70;;;;;;;;;;5052235;28;20619;-60
2021/03/31 05:05:00;;;;;;;4.60;3.47;;;;;;;;;;5072989;28;20539;-60
2021/03/31 05:07:26;;;;;;;3.73;3.37;;;;;;;;;;5073996;28;20663;-60
2021/03/31 05:09:52;;;;;;;4.90;3.00;;;;;;;;;;5049109;28;20204;-60
2021/03/31 05:12:18;;;;;;;3.20;2.60;;;;;;;;;;5053793;28;20212;-60
2021/03/31 05:14:44;;;;;;;4.83;3.30;;;;;;;;;;5048849;28;20180;-62
2021/03/31 05:17:10;;;;;;;3.13;2.83;;;;;;;;;;5056125;28;20541;-60
2021/03/31 05:19:36;;;;;;;4.00;3.30;;;;;;;;;;5055405;28;20219;-60
2021/03/31 05:22:02;;;;;;;5.70;3.73;;;;;;;;;;5055736;28;20212;-61
2021/03/31 05:24:28;;;;;;;4.90;3.10;;;;;;;;;;5072611;28;20754;-63
2021/03/31 05:26:54;;;;;;;3.23;2.93;;;;;;;;;;5053004;28;20260;-61
2021/03/31 05:29:20;;;;;;;4.10;3.10;;;;;;;;;;5062853;28;20267;-60
2021/03/31 05:31:46;;;;;;;5.47;3.00;;;;;;;;;;5055340;28;20207;-60
2021/03/31 05:34:12;;;;;;;3.27;2.80;;;;;;;;;;5071308;28;20176;-60
2021/03/31 05:36:38;;;;;;;3.83;3.10;;;;;;;;;;5073419;28;20165;-59
2021/03/31 05:39:04;;;;;;;4.00;2.77;;;;;;;;;;5054812;28;20229;-60
2021/03/31 05:41:31;;;;;;;3.40;3.07;;;;;;;;;;5072050;28;20547;-60
2021/03/31 05:43:57;;;;;;;3.30;3.00;;;;;;;;;;5073480;28;20211;-61
2021/03/31 05:46:23;;;;;;;5.43;3.60;;;;;;;;;;5054505;28;20220;-63
2021/03/31 05:48:49;;;;;;;4.37;3.33;;;;;;;;;;5070889;28;20182;-60
2021/03/31 05:51:16;;;;;;;4.90;3.07;;;;;;;;;;5071365;28;20203;-60
2021/03/31 05:53:42;;;;;;;3.50;3.00;;;;;;;;;;5052608;28;20191;-61
2021/03/31 05:56:08;;;;;;;5.87;3.20;;;;;;;;;;5043900;28;20170;-60
2021/03/31 05:58:35;;;;;;;4.17;3.33;;;;;;;;;;5036426;28;20726;-60
2021/03/31 06:01:03;;;;;;;6.70;3.10;;;;;;;;;;5071724;28;20252;-61
2021/03/31 06:03:30;;;;;;;3.77;2.90;;;;;;;;;;5071645;28;20180;-60
2021/03/31 06:05:56;;;;;;;4.00;3.13;;;;;;;;;;5072835;28;20078;-60
2021/03/31 06:08:22;;;;;;;3.97;3.10;;;;;;;;;;5072413;28;20161;-61
2021/03/31 06:10:57;;;;;;;5.47;3.10;;;;;;;;;;5071382;28;20252;-61
2021/03/31 06:13:23;;;;;;;3.70;2.90;;;;;;;;;;5071192;28;20153;-61
2021/03/31 06:15:49;;;;;;;4.93;3.00;;;;;;;;;;5073371;28;20202;-60
2021/03/31 06:18:17;;;;;;;3.60;3.07;;;;;;;;;;5071229;28;20173;-60
2021/03/31 06:21:00;;;;;;;4.20;3.23;;;;;;;;;;5073606;28;20169;-60
2021/03/31 06:26:24;;;;;;;4.70;3.50;;;;;;;;;;5059282;28;20254;-61
2021/03/31 06:28:57;;;;;;;4.37;2.90;;;;;;;;;;5040305;28;20194;-60
2021/03/31 06:31:27;;;;;;;6.03;3.27;;;;;;;;;;5071936;28;20207;-60
2021/03/31 06:33:53;;;;;;;5.00;3.40;;;;;;;;;;5072493;28;20183;-60
2021/03/31 06:36:35;;;;;;;3.13;2.70;;;;;;;;;;5055321;28;20602;-61
2021/03/31 06:39:15;;;;;;;4.87;3.27;;;;;;;;;;5054282;28;20172;-61
2021/03/31 06:41:49;;;;;;;3.93;3.00;;;;;;;;;;5071145;28;20395;-60
2021/03/31 06:44:20;;;;;;;4.83;3.57;;;;;;;;;;5052909;28;20266;-60
2021/03/31 06:49:16;;;;;;;4.90;3.20;;;;;;;;;;5071492;28;20560;-61
2021/03/31 06:51:43;;;;;;;4.43;3.23;;;;;;;;;;5072194;28;20232;-60
2021/03/31 06:54:11;;;;;;;4.33;2.97;;;;;;;;;;5072233;28;20722;-60
2021/03/31 06:56:37;;;;;;;4.13;3.00;;;;;;;;;;5070733;28;20184;-61
2021/03/31 06:59:04;;;;;;;4.83;3.20;;;;;;;;;;5071533;28;20180;-60
2021/03/31 07:01:31;;;;;;;4.87;3.20;;;;;;;;;;5053099;28;20724;-60
2021/03/31 07:03:58;;;;;;;5.43;3.13;;;;;;;;;;5060318;28;20275;-60
2021/03/31 07:06:24;;;;;;;4.37;3.03;;;;;;;;;;5071460;28;20197;-62
2021/03/31 07:08:50;;;;;;;5.43;3.17;;;;;;;;;;5072245;28;20184;-60
2021/03/31 07:11:36;;;;;;;11.03;3.17;;;;;;;;;;5056369;28;20193;-59
2021/03/31 07:14:03;;;;;;;4.10;3.13;;;;;;;;;;5059303;28;20627;-60
2021/03/31 07:16:29;;;;;;;3.40;3.07;;;;;;;;;;5072159;28;20230;-60
2021/03/31 07:18:57;;;;;;;4.53;3.00;;;;;;;;;;5069555;28;20177;-60
2021/03/31 07:21:23;;;;;;;3.93;3.43;;;;;;;;;;5056302;28;20173;-60
2021/03/31 07:23:51;;;;;;;3.57;3.00;;;;;;;;;;5037105;28;20999;-63
2021/03/31 07:26:18;;;;;;;6.63;3.53;;;;;;;;;;5066773;28;20259;-60
2021/03/31 07:28:44;;;;;;;4.87;2.93;;;;;;;;;;5042777;28;20184;-60
2021/03/31 07:31:14;;;;;;;4.90;3.77;;;;;;;;;;5071114;28;20249;-60
2021/03/31 07:33:44;;;;;;;5.67;3.30;;;;;;;;;;5052997;28;20188;-60
2021/03/31 07:36:10;;;;;;;4.60;3.47;;;;;;;;;;5070654;28;20172;-60
2021/03/31 07:38:37;;;;;;;5.20;3.27;;;;;;;;;;5036584;28;20180;-60
2021/03/31 07:41:06;;;;;;;4.90;3.30;;;;;;;;;;5066369;28;20281;-61
2021/03/31 07:43:36;;;;;;;5.33;3.50;;;;;;;;;;5070562;28;20180;-60
2021/03/31 07:46:03;;;;;;;6.27;4.10;;;;;;;;;;5069991;28;20211;-61
2021/03/31 07:48:30;;;;;;;7.00;3.87;;;;;;;;;;5069845;28;20242;-60
2021/03/31 07:50:56;;;;;;;11.18;4.93;;;;;;;;;;5040225;28;20411;-60
2021/03/31 07:53:25;;;;;;;6.00;4.20;;;;;;;;;;5053139;28;20171;-60
2021/03/31 07:55:52;;;;;;;5.57;3.90;;;;;;;;;;5070500;28;20210;-60
2021/03/31 07:58:24;;;;;;;5.37;4.17;;;;;;;;;;5057908;28;20225;-61
2021/03/31 08:00:56;;;;;;;5.10;3.70;;;;;;;;;;5071401;28;20161;-62
2021/03/31 08:03:41;;;;;;;6.97;3.90;;;;;;;;;;5070037;28;20165;-60
2021/03/31 08:06:15;;;;;;;6.70;3.73;;;;;;;;;;5053110;28;20263;-60
2021/03/31 08:08:49;;;;;;;4.30;3.73;;;;;;;;;;5069845;28;20287;-60
2021/03/31 08:11:35;;;;;;;5.23;3.57;;;;;;;;;;5047912;28;20651;-60
2021/03/31 08:14:01;;;;;;;4.70;3.70;;;;;;;;;;5057550;28;20184;-60
2021/03/31 08:16:37;;;;;;;7.07;3.47;;;;;;;;;;5064939;28;20181;-60
2021/03/31 08:19:05;;;;;;;6.37;4.43;;;;;;;;;;5057141;28;20180;-60
2021/03/31 08:21:32;;;;;;;6.93;4.30;;;;;;;;;;5040602;28;20270;-60
2021/03/31 08:23:58;;;;;;;5.27;4.43;;;;;;;;;;5056902;28;20206;-61
2021/03/31 08:26:28;;;;;;;6.47;4.23;;;;;;;;;;5069075;28;20180;-61
2021/03/31 08:28:54;;;;;;;6.40;4.00;;;;;;;;;;5060034;28;20183;-61
2021/03/31 08:31:21;;;;;;;6.33;4.17;;;;;;;;;;5053006;28;20213;-60
2021/03/31 08:33:47;;;;;;;6.07;3.43;;;;;;;;;;5055301;28;20176;-60
2021/03/31 08:36:14;;;;;;;5.73;4.13;;;;;;;;;;5081674;28;20172;-61
2021/03/31 08:38:40;;;;;;;7.93;4.47;;;;;;;;;;5067583;28;20698;-62
2021/03/31 08:41:13;;;;;;;6.83;3.73;;;;;;;;;;5048082;28;20253;-60
2021/03/31 08:43:39;;;;;;;6.23;3.77;;;;;;;;;;5068682;28;20184;-60
2021/03/31 08:46:06;;;;;;;8.50;4.30;;;;;;;;;;5073590;28;20180;-61
2021/03/31 08:48:37;;;;;;;9.97;4.37;;;;;;;;;;5059122;28;20259;-60
2021/03/31 08:51:07;;;;;;;6.20;4.13;;;;;;;;;;5055061;28;20632;-60
2021/03/31 08:53:33;;;;;;;6.67;4.27;;;;;;;;;;5070418;28;20681;-60
2021/03/31 08:55:59;;;;;;;7.83;4.03;;;;;;;;;;5050582;28;20176;-60
2021/03/31 08:58:27;;;;;;;6.40;4.37;;;;;;;;;;5085780;28;20283;-60
2021/03/31 09:00:53;;;;;;;5.40;3.60;;;;;;;;;;5076044;28;20226;-60
2021/03/31 09:03:30;;;;;;;8.40;4.30;;;;;;;;;;5056375;28;20176;-61
2021/03/31 09:06:00;;;;;;;7.47;3.77;;;;;;;;;;5057024;28;20168;-60
2021/03/31 09:08:28;;;;;;;5.17;3.70;;;;;;;;;;5070510;28;20264;-61
2021/03/31 09:10:55;;;;;;;5.27;3.87;;;;;;;;;;5071317;28;20572;-60
2021/03/31 09:13:25;;;;;;;4.57;3.60;;;;;;;;;;5042590;28;20648;-62
2021/03/31 09:15:54;;;;;;;7.23;4.77;;;;;;;;;;5041909;28;20185;-63
2021/03/31 09:18:21;;;;;;;7.07;3.93;;;;;;;;;;5054115;28;20232;-61
2021/03/31 09:20:47;;;;;;;4.90;3.83;;;;;;;;;;5062619;28;20181;-61
2021/03/31 09:23:19;;;;;;;5.40;3.80;;;;;;;;;;5052691;28;20196;-61
2021/03/31 09:25:59;;;;;;;5.20;3.00;;;;;;;;;;5070314;28;20639;-62
2021/03/31 09:28:25;;;;;;;5.53;3.57;;;;;;;;;;5061390;28;20685;-61
2021/03/31 09:31:20;;;;;;;3.73;3.30;;;;;;;;;;5070549;28;20186;-60
2021/03/31 09:33:46;;;;;;;6.40;3.93;;;;;;;;;;5067942;28;20165;-60
2021/03/31 09:36:14;;;;;;;6.20;3.23;;;;;;;;;;5058192;28;20173;-60
2021/03/31 09:38:40;;;;;;;6.20;3.10;;;;;;;;;;5057228;28;20204;-60
2021/03/31 09:41:07;;;;;;;4.60;3.33;;;;;;;;;;5053667;28;20204;-60
2021/03/31 09:43:34;;;;;;;3.70;3.30;;;;;;;;;;5072329;28;20503;-60
2021/03/31 09:46:00;;;;;;;5.77;3.53;;;;;;;;;;5084104;28;20199;-60
2021/03/31 09:48:26;;;;;;;5.77;4.10;;;;;;;;;;5089148;28;20164;-61
2021/03/31 09:50:53;;;;;;;6.10;3.47;;;;;;;;;;5070699;28;20188;-60
2021/03/31 09:53:23;;;;;;;9.40;4.17;;;;;;;;;;5055348;28;20240;-62
2021/03/31 09:55:50;;;;;;;4.50;3.47;;;;;;;;;;5051356;28;20234;-61
2021/03/31 09:58:21;;;;;;;4.40;3.60;;;;;;;;;;5047404;28;20579;-63
2021/03/31 10:00:47;;;;;;;4.53;3.63;;;;;;;;;;5082203;28;20623;-60
2021/03/31 10:03:13;;;;;;;4.77;3.87;;;;;;;;;;5070330;28;20219;-60
2021/03/31 10:05:39;;;;;;;4.47;3.30;;;;;;;;;;5071826;28;20207;-60
2021/03/31 10:08:06;;;;;;;4.43;3.23;;;;;;;;;;5071381;28;20177;-62
2021/03/31 10:10:39;;;;;;;4.80;3.60;;;;;;;;;;5052653;28;20252;-60
2021/03/31 10:13:06;;;;;;;3.80;2.83;;;;;;;;;;5071037;28;20200;-63
2021/03/31 10:15:32;;;;;;;4.30;3.13;;;;;;;;;;5067020;28;20178;-60
2021/03/31 10:17:58;;;;;;;6.50;3.40;;;;;;;;;;5079553;28;20172;-60
2021/03/31 10:20:29;;;;;;;4.80;2.90;;;;;;;;;;5053637;28;20187;-62
2021/03/31 10:22:55;;;;;;;4.17;3.20;;;;;;;;;;5071475;28;20218;-60
2021/03/31 10:25:28;;;;;;;3.83;2.90;;;;;;;;;;5052271;28;20192;-60
2021/03/31 10:27:55;;;;;;;3.93;3.13;;;;;;;;;;5071261;28;20537;-61
2021/03/31 10:30:29;;;;;;;3.73;2.83;;;;;;;;;;5071307;28;20172;-61
2021/03/31 10:32:55;;;;;;;3.53;2.93;;;;;;;;;;5056715;28;20199;-61
2021/03/31 10:35:43;;;;;;;3.97;2.80;;;;;;;;;;5061789;28;20223;-61
2021/03/31 10:38:17;;;;;;;4.70;3.10;;;;;;;;;;5066417;28;20646;-64
2021/03/31 10:41:13;;;;;;;3.20;2.87;;;;;;;;;;5033203;28;20252;-60
2021/03/31 10:49:28;;;;;;;3.93;2.77;;;;;;;;;;5067820;28;20231;-60
2021/03/31 10:52:00;;;;;;;5.03;2.80;;;;;;;;;;5052833;28;20200;-60
2021/03/31 10:54:27;;;;;;;3.40;2.43;;;;;;;;;;5065514;28;20164;-60
2021/03/31 10:57:04;;;;;;;3.17;2.87;;;;;;;;;;5050775;28;20260;-61
2021/03/31 10:59:30;;;;;;;3.27;2.87;;;;;;;;;;5061340;28;20165;-60
2021/03/31 11:01:57;;;;;;;2.70;2.43;;;;;;;;;;5069459;28;20592;-61
2021/03/31 11:04:23;;;;;;;3.30;2.43;;;;;;;;;;5062405;28;20181;-64
2021/03/31 11:06:49;;;;;;;2.97;2.67;;;;;;;;;;5046072;28;20205;-61
2021/03/31 11:09:15;;;;;;;4.27;2.97;;;;;;;;;;5051332;28;20231;-60
2021/03/31 11:11:41;;;;;;;3.87;2.83;;;;;;;;;;5067659;28;20227;-61
2021/03/31 11:14:07;;;;;;;3.83;2.70;;;;;;;;;;5059955;28;20638;-61
2021/03/31 11:16:34;;;;;;;5.33;2.50;;;;;;;;;;5071125;28;20683;-60
2021/03/31 11:19:42;;;;;;;3.23;2.60;;;;;;;;;;5070360;28;20177;-63
2021/03/31 11:25:33;;;;;;;3.07;2.77;;;;;;;;;;5065669;28;20198;-63
2021/03/31 11:27:32;;;;;;;5.43;2.80;;;;;;;;;;5050115;28;20569;-60
2021/03/31 11:29:58;;;;;;;4.00;3.20;;;;;;;;;;5061097;28;20183;-63
2021/03/31 11:32:25;;;;;;;5.67;2.80;;;;;;;;;;5064876;28;20257;-62
2021/03/31 11:34:51;;;;;;;4.60;2.40;;;;;;;;;;5048833;28;20177;-62
2021/03/31 11:37:17;;;;;;;4.50;2.87;;;;;;;;;;5051091;28;20170;-61
2021/03/31 11:39:43;;;;;;;5.03;2.60;;;;;;;;;;5061597;28;20255;-64
2021/03/31 11:42:09;;;;;;;3.90;2.30;;;;;;;;;;5053050;28;20368;-61
2021/03/31 11:44:35;;;;;;;4.53;2.70;;;;;;;;;;5074516;28;20203;-62
2021/03/31 11:47:02;;;;;;;3.40;2.30;;;;;;;;;;5070987;28;20620;-62
2021/03/31 11:49:28;;;;;;;4.60;3.00;;;;;;;;;;5070088;28;20567;-64
2021/03/31 11:51:54;;;;;;;5.70;2.80;;;;;;;;;;5052242;28;20200;-63
2021/03/31 11:54:20;;;;;;;3.80;3.07;;;;;;;;;;5066508;28;20172;-65
2021/03/31 11:56:46;;;;;;;5.73;3.87;;;;;;;;;;5032183;28;20185;-65
2021/03/31 11:59:12;;;;;;;7.67;3.73;;;;;;;;;;5059409;28;20310;-63
2021/03/31 12:01:38;;;;;;;8.80;4.63;;;;;;;;;;5070484;28;20183;-63
2021/03/31 12:04:04;;;;;;;5.20;3.37;;;;;;;;;;5049984;28;20195;-62
2021/03/31 12:06:30;;;;;;;6.97;3.90;;;;;;;;;;5070383;28;20172;-62
2021/03/31 12:08:56;;;;;;;6.77;3.33;;;;;;;;;;5070129;28;20176;-62
2021/03/31 12:11:22;;;;;;;4.87;3.67;;;;;;;;;;5051050;28;20204;-60
2021/03/31 12:13:48;;;;;;;4.83;3.43;;;;;;;;;;5067291;28;20358;-62
2021/03/31 12:16:14;;;;;;;12.23;3.73;;;;;;;;;;5052899;28;20225;-61
2021/03/31 12:18:40;;;;;;;18.53;5.30;;;;;;;;;;5055272;28;20192;-65
2021/03/31 12:21:07;;;;;;;9.93;4.13;;;;;;;;;;5052099;28;20197;-61
2021/03/31 12:23:33;;;;;;;18.47;4.40;;;;;;;;;;5060460;28;20695;-63
2021/03/31 12:26:00;;;;;;;8.80;3.70;;;;;;;;;;5059593;28;20194;-61
2021/03/31 12:28:27;;;;;;;8.83;3.80;;;;;;;;;;5069523;28;20221;-62
2021/03/31 12:30:53;;;;;;;5.13;3.27;;;;;;;;;;5052613;28;20173;-62
2021/03/31 12:33:20;;;;;;;5.70;4.13;;;;;;;;;;5049063;28;20196;-61
2021/03/31 12:35:46;;;;;;;6.60;3.93;;;;;;;;;;5051810;28;20176;-62
2021/03/31 12:38:12;;;;;;;6.63;4.23;;;;;;;;;;5056861;28;20276;-65
2021/03/31 12:40:38;;;;;;;5.47;3.83;;;;;;;;;;5068872;28;20258;-61
2021/03/31 12:43:04;;;;;;;7.57;4.80;;;;;;;;;;5068799;28;20418;-63
2021/03/31 12:45:30;;;;;;;7.07;4.07;;;;;;;;;;5069903;28;20593;-63
2021/03/31 12:47:56;;;;;;;5.93;4.00;;;;;;;;;;5052159;28;20179;-62
2021/03/31 12:50:22;;;;;;;8.37;3.40;;;;;;;;;;5069233;28;20205;-61
2021/03/31 12:52:53;;;;;;;4.43;3.77;;;;;;;;;;5069166;28;20289;-63
2021/03/31 12:55:42;;;;;;;5.43;3.57;;;;;;;;;;5061726;28;20269;-64
2021/03/31 12:58:09;;;;;;;5.37;3.90;;;;;;;;;;5049880;28;20199;-63
2021/03/31 13:00:35;;;;;;;6.33;3.87;;;;;;;;;;5061766;28;20180;-63
2021/03/31 13:03:01;;;;;;;5.40;3.60;;;;;;;;;;5032561;28;20176;-63
2021/03/31 13:05:27;;;;;;;11.33;3.33;;;;;;;;;;5066148;28;20175;-61
2021/03/31 13:07:53;;;;;;;4.60;3.07;;;;;;;;;;5089020;28;20515;-64
2021/03/31 13:10:20;;;;;;;4.90;3.10;;;;;;;;;;5052282;28;20222;-61
2021/03/31 13:23:05;;;;;;;4.97;2.33;;;;;;;;;;5024655;28;20192;-62
2021/03/31 13:25:36;;;;;;;2.70;2.50;;;;;;;;;;5061776;28;20666;-63
2021/03/31 13:33:08;;;;;;;11.20;2.90;;;;;;;;;;5060833;28;20211;-61
2021/03/31 13:35:45;;;;;;;14.73;3.83;;;;;;;;;;5063031;28;20294;-64
2021/03/31 13:38:22;;;;;;;17.47;3.43;;;;;;;;;;5045962;28;20168;-63
2021/03/31 13:40:48;;;;;;;34.83;5.23;;;;;;;;;;5072630;28;20217;-62
2021/03/31 13:43:14;;;;;;;44.10;7.90;;;;;;;;;;5064256;28;20232;-63
2021/03/31 13:45:40;;;;;;;19.33;3.57;;;;;;;;;;5058882;28;20188;-61
2021/03/31 13:48:21;;;;;;;8.93;2.93;;;;;;;;;;5064726;28;20173;-63
2021/03/31 13:50:47;;;;;;;4.60;2.93;;;;;;;;;;5065665;28;20672;-62
2021/03/31 13:53:19;;;;;;;4.20;2.70;;;;;;;;;;5043642;28;20213;-62
2021/03/31 13:55:47;;;;;;;6.40;3.00;;;;;;;;;;5050629;28;20190;-61
2021/03/31 13:58:13;;;;;;;7.27;3.87;;;;;;;;;;5044959;28;20221;-62
2021/03/31 14:00:40;;;;;;;4.60;2.80;;;;;;;;;;5064356;28;20188;-64
2021/03/31 14:03:06;;;;;;;3.23;2.73;;;;;;;;;;5040704;28;20173;-63
2021/03/31 14:05:32;;;;;;;6.20;3.63;;;;;;;;;;5055170;28;20187;-63
2021/03/31 14:07:58;;;;;;;6.60;3.00;;;;;;;;;;5055288;28;20175;-63
2021/03/31 14:10:24;;;;;;;5.97;3.03;;;;;;;;;;5063359;28;20179;-62
2021/03/31 14:12:56;;;;;;;5.57;3.37;;;;;;;;;;5043085;28;20202;-63
2021/03/31 14:15:23;;;;;;;8.77;3.40;;;;;;;;;;5055269;28;20191;-63
2021/03/31 14:17:49;;;;;;;5.50;3.93;;;;;;;;;;5067624;28;20629;-63
2021/03/31 14:20:16;;;;;;;4.93;3.87;;;;;;;;;;5058348;28;20180;-63
2021/03/31 14:22:43;;;;;;;5.73;3.50;;;;;;;;;;5053066;28;20172;-63
2021/03/31 14:25:13;;;;;;;25.97;3.93;;;;;;;;;;5052823;28;20878;-63
2021/03/31 14:27:39;;;;;;;5.63;3.93;;;;;;;;;;5052870;28;20230;-62
2021/03/31 14:30:07;;;;;;;6.43;4.43;;;;;;;;;;5050860;28;20189;-63
2021/03/31 14:32:34;;;;;;;6.50;4.53;;;;;;;;;;5054861;28;20254;-63
2021/03/31 14:35:00;;;;;;;7.17;5.17;;;;;;;;;;5067545;28;20184;-64
2021/03/31 14:37:26;;;;;;;9.13;5.10;;;;;;;;;;5055107;28;20173;-65
2021/03/31 14:39:52;;;;;;;12.37;4.80;;;;;;;;;;5063055;28;20212;-64
2021/03/31 14:42:18;;;;;;;6.10;4.67;;;;;;;;;;5053677;28;20554;-63
2021/03/31 14:44:44;;;;;;;5.57;4.40;;;;;;;;;;5067473;28;20170;-64
2021/03/31 14:47:10;;;;;;;6.43;3.87;;;;;;;;;;5059314;28;20183;-63
2021/03/31 14:49:36;;;;;;;9.90;4.03;;;;;;;;;;5060142;28;20279;-63
2021/03/31 14:57:53;;;;;;;6.17;3.63;;;;;;;;;;5054957;28;20227;-65
2021/03/31 15:00:20;;;;;;;11.27;4.63;;;;;;;;;;5065995;28;20612;-64
2021/03/31 15:02:46;;;;;;;19.10;5.53;;;;;;;;;;5056685;28;20596;-62
2021/03/31 15:05:12;;;;;;;21.47;5.77;;;;;;;;;;5037592;28;20219;-64
2021/03/31 15:07:38;;;;;;;8.87;4.23;;;;;;;;;;5051787;28;20571;-64
2021/03/31 15:10:05;;;;;;;6.60;4.20;;;;;;;;;;5067550;28;20186;-64
2021/03/31 15:12:31;;;;;;;6.47;4.20;;;;;;;;;;5068750;28;20206;-64
2021/03/31 15:14:58;;;;;;;11.53;5.23;;;;;;;;;;5059711;28;20238;-64
2021/03/31 15:17:24;;;;;;;4.67;3.97;;;;;;;;;;5052960;28;20252;-64
2021/03/31 15:22:43;;;;;;;6.60;3.77;;;;;;;;;;5039367;28;20610;-63
2021/03/31 15:25:10;;;;;;;4.70;3.67;;;;;;;;;;5067017;28;20614;-64
2021/03/31 15:27:36;;;;;;;5.57;4.57;;;;;;;;;;5055936;28;20609;-64